createdAt,value
2019-04-25T00:02:03.008Z,11.37
2019-04-25T00:04:32.594Z,11.21
2019-04-25T00:07:02.265Z,11.39
2019-04-25T00:09:33.604Z,11.22
2019-04-25T00:12:03.035Z,11.06
2019-04-25T00:14:32.783Z,11.17
2019-04-25T00:17:01.890Z,11.30
2019-04-25T00:19:31.695Z,11.28
2019-04-25T00:22:13.982Z,11.07
2019-04-25T00:25:12.886Z,11.14
2019-04-25T00:27:32.670Z,11.04
2019-04-25T00:30:01.863Z,10.91
2019-04-25T00:32:31.607Z,10.80
2019-04-25T00:35:01.915Z,10.85
2019-04-25T00:37:32.318Z,11.08
2019-04-25T00:40:01.693Z,10.71
2019-04-25T00:42:31.990Z,10.74
2019-04-25T00:45:02.317Z,10.73
2019-04-25T00:47:31.611Z,10.93
2019-04-25T00:50:02.347Z,10.75
2019-04-25T00:52:31.439Z,10.91
2019-04-25T00:55:01.867Z,10.86
2019-04-25T00:57:32.086Z,10.88
2019-04-25T01:00:08.554Z,10.80
2019-04-25T01:02:38.958Z,10.76
2019-04-25T01:05:08.537Z,10.73
2019-04-25T01:07:37.459Z,10.72
2019-04-25T01:10:08.812Z,10.41
2019-04-25T01:12:37.697Z,10.56
2019-04-25T01:15:09.266Z,10.47
2019-04-25T01:17:38.144Z,10.61
2019-04-25T01:20:08.342Z,10.58
2019-04-25T01:22:37.260Z,10.47
2019-04-25T01:25:08.155Z,10.66
2019-04-25T01:27:36.987Z,10.45
2019-04-25T01:30:09.892Z,10.41
2019-04-25T01:32:39.379Z,10.51
2019-04-25T01:35:23.785Z,10.46
2019-04-25T01:38:06.753Z,10.42
2019-04-25T01:40:39.935Z,10.27
2019-04-25T01:43:11.449Z,10.39
2019-04-25T01:45:40.661Z,10.08
2019-04-25T01:48:10.533Z,10.19
2019-04-25T01:50:39.403Z,10.44
2019-04-25T01:53:09.623Z,10.25
2019-04-25T01:55:51.042Z,10.25
2019-04-25T01:58:09.664Z,10.36
2019-04-25T02:00:43.089Z,10.32
2019-04-25T02:03:13.476Z,10.29
2019-04-25T02:05:43.925Z,10.31
2019-04-25T02:08:14.295Z,10.42
2019-04-25T02:10:44.766Z,10.54
2019-04-25T02:13:21.132Z,10.59
2019-04-25T02:15:50.680Z,10.69
2019-04-25T02:18:20.450Z,10.91
2019-04-25T02:20:49.346Z,10.81
2019-04-25T02:23:18.233Z,10.68
2019-04-25T02:25:47.126Z,10.60
2019-04-25T02:28:16.026Z,10.64
2019-04-25T02:30:45.511Z,10.14
2019-04-25T02:33:14.676Z,10.17
2019-04-25T02:35:46.595Z,10.38
2019-04-25T02:38:16.907Z,10.79
2019-04-25T02:40:45.627Z,10.61
2019-04-25T02:43:14.587Z,10.23
2019-04-25T02:46:06.501Z,9.84
2019-04-25T02:48:41.251Z,10.15
2019-04-25T02:51:28.775Z,10.23
2019-04-25T02:53:59.676Z,9.80
2019-04-25T02:56:34.293Z,10.36
2019-04-25T02:59:00.310Z,9.84
2019-04-25T03:01:29.434Z,10.09
2019-04-25T03:03:59.403Z,10.26
2019-04-25T03:06:28.944Z,10.36
2019-04-25T03:08:58.622Z,10.25
2019-04-25T03:11:28.400Z,10.34
2019-04-25T03:13:58.920Z,10.54
2019-04-25T03:16:28.641Z,10.54
2019-04-25T03:19:14.921Z,10.49
2019-04-25T03:21:51.409Z,10.53
2019-04-25T03:24:20.403Z,10.67
2019-04-25T03:26:49.292Z,10.80
2019-04-25T03:29:18.183Z,10.68
2019-04-25T03:31:47.078Z,10.31
2019-04-25T03:34:20.401Z,10.31
2019-04-25T03:36:46.600Z,10.36
2019-04-25T03:39:16.550Z,10.50
2019-04-25T03:41:45.597Z,10.43
2019-04-25T03:44:16.782Z,10.41
2019-04-25T03:46:45.644Z,10.53
2019-04-25T03:49:14.550Z,10.48
2019-04-25T03:51:43.936Z,10.49
2019-04-25T03:54:14.299Z,10.56
2019-04-25T03:56:53.164Z,10.50
2019-04-25T03:59:14.608Z,10.59
2019-04-25T04:01:44.523Z,10.51
2019-04-25T04:04:16.185Z,10.51
2019-04-25T04:06:44.214Z,10.49
2019-04-25T04:09:14.249Z,10.51
2019-04-25T04:11:43.609Z,10.24
2019-04-25T04:14:14.496Z,10.43
2019-04-25T04:16:44.731Z,10.54
2019-04-25T04:19:15.792Z,10.46
2019-04-25T04:21:53.219Z,10.61
2019-04-25T04:24:25.787Z,10.60
2019-04-25T04:27:03.846Z,10.39
2019-04-25T04:29:33.179Z,10.60
2019-04-25T04:32:03.066Z,10.49
2019-04-25T04:34:33.640Z,10.47
2019-04-25T04:37:03.740Z,10.59
2019-04-25T04:39:33.850Z,10.51
2019-04-25T04:42:03.836Z,10.43
2019-04-25T04:44:34.353Z,10.44
2019-04-25T04:47:04.019Z,10.62
2019-04-25T04:49:34.131Z,10.56
2019-04-25T04:52:06.536Z,10.57
2019-04-25T04:54:35.476Z,10.60
2019-04-25T04:57:16.752Z,10.65
2019-04-25T04:59:34.995Z,10.62
2019-04-25T05:02:05.494Z,10.69
2019-04-25T05:04:53.977Z,10.68
2019-04-25T05:07:25.382Z,10.43
2019-04-25T05:09:54.319Z,10.53
2019-04-25T05:12:24.110Z,10.72
2019-04-25T05:14:53.656Z,10.82
2019-04-25T05:17:23.714Z,10.68
2019-04-25T05:19:53.318Z,10.50
2019-04-25T05:22:23.916Z,10.03
2019-04-25T05:24:53.529Z,10.21
2019-04-25T05:27:37.502Z,10.41
2019-04-25T05:29:53.950Z,10.18
2019-04-25T05:32:25.119Z,10.25
2019-04-25T05:34:53.677Z,10.39
2019-04-25T05:37:25.242Z,10.23
2019-04-25T05:39:53.591Z,10.16
2019-04-25T05:42:29.872Z,9.72
2019-04-25T05:45:01.733Z,10.58
2019-04-25T05:47:30.627Z,10.49
2019-04-25T05:49:59.621Z,10.19
2019-04-25T05:52:28.513Z,10.38
2019-04-25T05:54:57.312Z,10.53
2019-04-25T05:57:26.188Z,10.67
2019-04-25T05:59:55.079Z,10.66
2019-04-25T06:02:25.356Z,10.86
2019-04-25T06:04:54.670Z,10.81
2019-04-25T06:07:25.470Z,11.07
2019-04-25T06:10:12.078Z,11.07
2019-04-25T06:12:51.488Z,11.20
2019-04-25T06:15:23.723Z,11.39
2019-04-25T06:17:55.525Z,11.38
2019-04-25T06:20:26.151Z,11.61
2019-04-25T06:23:05.284Z,11.55
2019-04-25T06:25:39.421Z,11.81
2019-04-25T06:28:06.441Z,12.06
2019-04-25T06:30:35.932Z,12.07
2019-04-25T06:33:04.738Z,12.16
2019-04-25T06:35:35.777Z,12.31
2019-04-25T06:38:04.873Z,12.43
2019-04-25T06:40:34.555Z,12.54
2019-04-25T06:43:03.865Z,12.57
2019-04-25T06:45:55.222Z,12.59
2019-04-25T06:48:43.338Z,12.19
2019-04-25T06:51:13.452Z,12.21
2019-04-25T06:53:43.614Z,12.43
2019-04-25T06:56:13.677Z,12.69
2019-04-25T06:58:43.817Z,12.81
2019-04-25T07:01:13.519Z,12.87
2019-04-25T07:03:44.081Z,12.99
2019-04-25T07:06:14.740Z,12.95
2019-04-25T07:08:44.787Z,13.25
2019-04-25T07:11:14.106Z,13.22
2019-04-25T07:13:43.826Z,13.15
2019-04-25T07:16:13.471Z,12.75
2019-04-25T07:18:43.624Z,12.90
2019-04-25T07:21:14.179Z,12.93
2019-04-25T07:23:46.016Z,13.28
2019-04-25T07:26:16.676Z,13.00
2019-04-25T07:28:47.108Z,13.03
2019-04-25T07:31:17.635Z,13.23
2019-04-25T07:33:48.064Z,13.49
2019-04-25T07:36:16.975Z,13.71
2019-04-25T07:38:45.844Z,13.82
2019-04-25T07:41:16.350Z,13.92
2019-04-25T07:43:45.370Z,14.04
2019-04-25T07:46:14.363Z,14.13
2019-04-25T07:48:43.822Z,14.16
2019-04-25T07:51:15.875Z,14.09
2019-04-25T07:53:43.762Z,14.19
2019-04-25T07:56:14.268Z,14.43
2019-04-25T07:58:50.384Z,14.46
2019-04-25T08:01:15.594Z,14.50
2019-04-25T08:03:46.372Z,14.77
2019-04-25T08:06:17.545Z,14.98
2019-04-25T08:08:47.512Z,14.97
2019-04-25T08:11:16.505Z,15.04
2019-04-25T08:13:47.016Z,14.99
2019-04-25T08:16:17.647Z,15.13
2019-04-25T08:18:47.540Z,15.09
2019-04-25T08:21:16.357Z,15.12
2019-04-25T08:23:45.548Z,15.34
2019-04-25T08:26:14.547Z,15.62
2019-04-25T08:28:54.354Z,15.84
2019-04-25T08:31:14.135Z,16.26
2019-04-25T08:33:43.469Z,16.44
2019-04-25T08:36:13.818Z,16.54
2019-04-25T08:38:44.537Z,16.69
2019-04-25T08:41:14.073Z,16.79
2019-04-25T08:43:45.287Z,16.85
2019-04-25T08:46:14.106Z,16.93
2019-04-25T08:49:02.208Z,17.05
2019-04-25T08:51:34.840Z,17.36
2019-04-25T08:54:07.593Z,17.44
2019-04-25T08:56:37.840Z,17.60
2019-04-25T08:59:17.440Z,17.44
2019-04-25T09:01:47.870Z,17.32
2019-04-25T09:04:18.291Z,17.10
2019-04-25T09:06:47.184Z,17.25
2019-04-25T09:09:16.073Z,17.55
2019-04-25T09:11:47.039Z,17.73
2019-04-25T09:14:17.852Z,17.86
2019-04-25T09:16:46.743Z,17.96
2019-04-25T09:19:15.634Z,17.95
2019-04-25T09:21:48.038Z,17.98
2019-04-25T09:24:15.058Z,18.00
2019-04-25T09:26:45.120Z,18.14
2019-04-25T09:29:17.540Z,18.22
2019-04-25T09:31:46.016Z,18.23
2019-04-25T09:34:15.027Z,18.40
2019-04-25T09:36:45.011Z,18.54
2019-04-25T09:39:33.704Z,18.90
2019-04-25T09:42:04.315Z,19.00
2019-04-25T09:44:38.433Z,18.94
2019-04-25T09:47:09.649Z,19.09
2019-04-25T09:49:40.115Z,19.00
2019-04-25T09:52:13.284Z,18.95
2019-04-25T09:54:49.467Z,18.98
2019-04-25T09:57:36.374Z,19.10
2019-04-25T10:00:09.027Z,19.27
2019-04-25T10:02:38.214Z,19.48
2019-04-25T10:05:07.766Z,19.76
2019-04-25T10:07:37.285Z,19.85
2019-04-25T10:10:06.836Z,20.01
2019-04-25T10:12:37.250Z,19.92
2019-04-25T10:15:18.285Z,19.98
2019-04-25T10:17:47.173Z,19.96
2019-04-25T10:20:18.275Z,20.05
2019-04-25T10:22:48.847Z,19.98
2019-04-25T10:25:18.545Z,19.93
2019-04-25T10:27:49.244Z,19.95
2019-04-25T10:30:21.816Z,20.03
2019-04-25T10:32:50.880Z,20.04
2019-04-25T10:35:19.854Z,20.13
2019-04-25T10:37:48.850Z,20.00
2019-04-25T10:40:18.892Z,20.10
2019-04-25T10:42:49.596Z,19.98
2019-04-25T10:45:23.230Z,20.05
2019-04-25T10:47:49.554Z,20.16
2019-04-25T10:50:18.425Z,20.18
2019-04-25T10:52:48.308Z,20.27
2019-04-25T10:55:17.360Z,20.27
2019-04-25T10:57:46.533Z,20.35
2019-04-25T11:00:25.715Z,20.44
2019-04-25T11:02:56.245Z,20.29
2019-04-25T11:05:25.189Z,20.26
2019-04-25T11:07:55.789Z,20.33
2019-04-25T11:10:25.574Z,20.29
2019-04-25T11:12:57.494Z,20.15
2019-04-25T11:15:26.587Z,20.13
2019-04-25T11:17:55.480Z,20.34
2019-04-25T11:20:29.698Z,20.36
2019-04-25T11:22:58.895Z,20.43
2019-04-25T11:25:27.890Z,20.29
2019-04-25T11:27:56.882Z,20.27
2019-04-25T11:30:27.626Z,20.26
2019-04-25T11:32:56.919Z,20.22
2019-04-25T11:35:27.652Z,20.09
2019-04-25T11:37:58.183Z,20.00
2019-04-25T11:40:34.695Z,19.96
2019-04-25T11:43:04.315Z,19.82
2019-04-25T11:45:34.893Z,19.76
2019-04-25T11:48:05.337Z,19.75
2019-04-25T11:50:37.054Z,19.62
2019-04-25T11:53:06.274Z,19.54
2019-04-25T11:55:35.270Z,19.58
2019-04-25T11:58:04.262Z,19.50
2019-04-25T12:00:33.977Z,19.56
2019-04-25T12:03:03.709Z,19.46
2019-04-25T12:05:34.201Z,19.38
2019-04-25T12:08:04.073Z,19.38
2019-04-25T12:10:34.862Z,19.38
2019-04-25T12:13:04.288Z,19.40
2019-04-25T12:15:33.464Z,19.37
2019-04-25T12:18:04.668Z,19.38
2019-04-25T12:20:34.082Z,19.25
2019-04-25T12:23:08.331Z,19.24
2019-04-25T12:25:34.079Z,19.17
2019-04-25T12:28:04.592Z,19.11
2019-04-25T12:30:39.520Z,19.11
2019-04-25T12:33:04.205Z,19.03
2019-04-25T12:35:33.380Z,18.91
2019-04-25T12:38:03.473Z,18.71
2019-04-25T12:40:34.231Z,18.86
2019-04-25T12:43:05.206Z,18.78
2019-04-25T12:45:45.815Z,18.92
2019-04-25T12:48:16.191Z,18.94
2019-04-25T12:50:46.220Z,18.84
2019-04-25T12:53:15.201Z,18.86
2019-04-25T12:55:44.341Z,18.83
2019-04-25T12:58:13.663Z,18.88
2019-04-25T13:00:49.584Z,18.76
2019-04-25T13:03:14.325Z,18.82
2019-04-25T13:05:44.243Z,18.85
2019-04-25T13:08:14.335Z,18.77
2019-04-25T13:10:44.494Z,18.84
2019-04-25T13:13:15.380Z,18.73
2019-04-25T13:15:46.081Z,18.67
2019-04-25T13:18:15.667Z,18.58
2019-04-25T13:20:44.561Z,18.51
2019-04-25T13:23:14.907Z,18.52
2019-04-25T13:25:44.247Z,18.58
2019-04-25T13:28:14.833Z,18.74
2019-04-25T13:30:45.360Z,18.85
2019-04-25T13:33:27.974Z,18.74
2019-04-25T13:36:08.311Z,18.63
2019-04-25T13:38:37.454Z,18.50
2019-04-25T13:41:06.453Z,18.63
2019-04-25T13:43:35.728Z,18.51
2019-04-25T13:46:04.614Z,18.66
2019-04-25T13:48:34.672Z,18.53
2019-04-25T13:51:04.331Z,18.51
2019-04-25T13:53:33.598Z,18.49
2019-04-25T13:56:03.293Z,18.42
2019-04-25T13:58:34.280Z,18.42
2019-04-25T14:01:12.972Z,18.50
2019-04-25T14:03:35.694Z,18.41
2019-04-25T14:06:05.390Z,18.28
2019-04-25T14:08:34.774Z,18.45
2019-04-25T14:11:05.246Z,18.36
2019-04-25T14:13:34.277Z,18.32
2019-04-25T14:16:07.768Z,18.21
2019-04-25T14:18:56.757Z,18.35
2019-04-25T14:21:26.074Z,18.38
2019-04-25T14:23:55.895Z,18.40
2019-04-25T14:26:25.276Z,18.29
2019-04-25T14:28:54.255Z,18.23
2019-04-25T14:31:41.216Z,18.19
2019-04-25T14:33:55.226Z,18.09
2019-04-25T14:36:25.784Z,18.06
2019-04-25T14:38:54.750Z,17.89
2019-04-25T14:41:23.898Z,17.96
2019-04-25T14:43:52.736Z,18.04
2019-04-25T14:46:21.730Z,17.98
2019-04-25T14:48:50.727Z,18.00
2019-04-25T14:51:19.734Z,17.87
2019-04-25T14:53:48.772Z,17.87
2019-04-25T14:56:22.552Z,17.86
2019-04-25T14:58:51.922Z,17.83
2019-04-25T15:01:22.708Z,17.83
2019-04-25T15:03:52.123Z,17.79
2019-04-25T15:06:21.157Z,17.82
2019-04-25T15:08:50.047Z,17.84
2019-04-25T15:11:18.944Z,17.81
2019-04-25T15:13:47.830Z,17.79
2019-04-25T15:16:16.896Z,17.75
2019-04-25T15:18:46.916Z,17.82
2019-04-25T15:21:18.613Z,17.81
2019-04-25T15:23:59.598Z,17.75
2019-04-25T15:26:19.044Z,17.80
2019-04-25T15:28:47.841Z,17.82
2019-04-25T15:31:16.912Z,17.82
2019-04-25T15:33:45.818Z,17.86
2019-04-25T15:36:19.013Z,17.89
2019-04-25T15:38:49.443Z,17.93
2019-04-25T15:41:19.866Z,17.90
2019-04-25T15:44:02.170Z,17.80
2019-04-25T15:46:38.710Z,17.74
2019-04-25T15:49:08.452Z,17.60
2019-04-25T15:51:37.702Z,17.58
2019-04-25T15:54:06.953Z,17.77
2019-04-25T15:56:36.717Z,17.78
2019-04-25T15:59:05.726Z,17.81
2019-04-25T16:01:34.860Z,17.85
2019-04-25T16:04:03.751Z,17.76
2019-04-25T16:06:32.847Z,17.66
2019-04-25T16:09:01.738Z,17.51
2019-04-25T16:11:30.634Z,17.40
2019-04-25T16:13:59.518Z,17.20
2019-04-25T16:16:28.411Z,17.18
2019-04-25T16:18:58.023Z,17.29
2019-04-25T16:21:27.806Z,17.53
2019-04-25T16:23:56.619Z,17.64
2019-04-25T16:26:25.715Z,17.55
2019-04-25T16:28:54.616Z,17.55
2019-04-25T16:31:25.957Z,17.45
2019-04-25T16:33:54.846Z,17.35
2019-04-25T16:36:23.839Z,17.20
2019-04-25T16:38:52.733Z,17.17
2019-04-25T16:41:22.645Z,16.98
2019-04-25T16:43:53.075Z,16.84
2019-04-25T16:46:22.782Z,16.48
2019-04-25T16:48:51.788Z,16.26
2019-04-25T16:51:20.974Z,15.99
2019-04-25T16:53:49.866Z,15.94
2019-04-25T16:56:18.663Z,16.05
2019-04-25T16:58:47.559Z,15.95
2019-04-25T17:01:16.745Z,15.58
2019-04-25T17:03:45.744Z,15.59
2019-04-25T17:06:14.895Z,15.54
2019-04-25T17:08:44.208Z,15.49
2019-04-25T17:11:13.305Z,15.35
2019-04-25T17:13:45.094Z,15.34
2019-04-25T17:16:34.763Z,15.22
2019-04-25T17:19:14.535Z,15.13
2019-04-25T17:21:44.851Z,15.10
2019-04-25T17:24:13.838Z,14.78
2019-04-25T17:26:42.826Z,14.85
2019-04-25T17:29:14.830Z,14.45
2019-04-25T17:32:00.271Z,14.50
2019-04-25T17:34:30.933Z,14.85
2019-04-25T17:37:17.250Z,14.69
2019-04-25T17:39:53.673Z,14.49
2019-04-25T17:42:22.666Z,14.23
2019-04-25T17:44:51.557Z,14.30
2019-04-25T17:47:21.982Z,14.50
2019-04-25T17:49:50.878Z,14.34
2019-04-25T17:52:19.767Z,14.21
2019-04-25T17:54:48.664Z,14.13
2019-04-25T17:57:17.652Z,13.90
2019-04-25T17:59:46.542Z,13.92
2019-04-25T18:02:15.536Z,13.39
2019-04-25T18:04:44.694Z,13.35
2019-04-25T18:07:13.627Z,13.72
2019-04-25T18:09:43.463Z,13.84
2019-04-25T18:12:13.207Z,13.90
2019-04-25T18:14:42.646Z,13.63
2019-04-25T18:17:12.160Z,13.12
2019-04-25T18:19:48.838Z,13.11
2019-04-25T18:22:25.658Z,13.18
2019-04-25T18:25:12.591Z,12.91
2019-04-25T18:27:43.057Z,12.25
2019-04-25T18:30:12.765Z,12.97
2019-04-25T18:32:43.321Z,13.13
2019-04-25T18:35:15.155Z,12.82
2019-04-25T18:37:45.581Z,12.47
2019-04-25T18:40:27.888Z,12.73
2019-04-25T18:43:07.171Z,12.39
2019-04-25T18:45:38.418Z,12.90
2019-04-25T18:48:07.557Z,13.15
2019-04-25T18:50:37.454Z,12.90
2019-04-25T18:53:12.492Z,12.70
2019-04-25T18:55:58.407Z,12.89
2019-04-25T18:58:28.766Z,12.86
2019-04-25T19:01:15.114Z,12.68
2019-04-25T19:03:48.737Z,12.51
2019-04-25T19:06:20.390Z,12.40
2019-04-25T19:08:49.392Z,12.61
2019-04-25T19:11:18.283Z,12.79
2019-04-25T19:13:47.397Z,12.93
2019-04-25T19:16:16.469Z,12.97
2019-04-25T19:18:46.760Z,12.94
2019-04-25T19:21:15.992Z,12.89
2019-04-25T19:23:46.061Z,13.06
2019-04-25T19:26:15.008Z,13.02
2019-04-25T19:28:45.535Z,12.87
2019-04-25T19:31:14.527Z,12.93
2019-04-25T19:33:43.418Z,12.48
2019-04-25T19:36:12.308Z,11.77
2019-04-25T19:38:41.975Z,11.39
2019-04-25T19:41:30.470Z,11.98
2019-04-25T19:44:06.913Z,12.13
2019-04-25T19:46:41.373Z,12.07
2019-04-25T19:49:10.762Z,12.12
2019-04-25T19:51:39.756Z,11.89
2019-04-25T19:54:08.749Z,12.01
2019-04-25T19:56:38.230Z,11.69
2019-04-25T19:59:08.060Z,11.66
2019-04-25T20:01:36.958Z,11.84
2019-04-25T20:04:10.260Z,12.29
2019-04-25T20:06:40.800Z,12.00
2019-04-25T20:09:24.015Z,11.46
2019-04-25T20:11:54.617Z,11.78
2019-04-25T20:14:25.070Z,11.88
2019-04-25T20:16:53.965Z,11.80
2019-04-25T20:19:22.853Z,11.72
2019-04-25T20:21:52.099Z,11.38
2019-04-25T20:24:21.047Z,10.99
2019-04-25T20:26:50.445Z,10.57
2019-04-25T20:29:19.466Z,10.23
2019-04-25T20:31:49.355Z,9.87
2019-04-25T20:34:18.250Z,9.87
2019-04-25T20:36:47.446Z,9.28
2019-04-25T20:39:16.234Z,9.30
2019-04-25T20:41:45.473Z,9.04
2019-04-25T20:44:15.347Z,9.03
2019-04-25T20:46:44.238Z,9.36
2019-04-25T20:49:13.032Z,9.12
2019-04-25T20:51:41.921Z,9.27
2019-04-25T20:54:12.294Z,9.65
2019-04-25T20:56:41.236Z,8.80
2019-04-25T20:59:10.642Z,8.36
2019-04-25T21:01:39.531Z,8.62
2019-04-25T21:04:13.214Z,8.63
2019-04-25T21:06:42.434Z,8.61
2019-04-25T21:09:12.451Z,8.09
2019-04-25T21:11:41.343Z,8.00
2019-04-25T21:14:11.984Z,8.34
2019-04-25T21:16:48.140Z,8.04
2019-04-25T21:19:18.589Z,8.27
2019-04-25T21:21:47.454Z,8.50
2019-04-25T21:24:18.741Z,8.77
2019-04-25T21:26:47.593Z,8.98
2019-04-25T21:29:16.586Z,8.24
2019-04-25T21:31:47.013Z,8.39
2019-04-25T21:34:25.989Z,8.40
2019-04-25T21:36:46.536Z,8.40
2019-04-25T21:39:26.183Z,8.06
2019-04-25T21:41:56.636Z,8.04
2019-04-25T21:44:26.420Z,8.25
2019-04-25T21:46:55.505Z,8.71
2019-04-25T21:49:25.423Z,8.19
2019-04-25T21:51:55.070Z,8.33
2019-04-25T21:54:24.036Z,8.73
2019-04-25T21:56:53.337Z,8.10
2019-04-25T21:59:23.046Z,7.93
2019-04-25T22:01:52.076Z,7.93
2019-04-25T22:04:20.927Z,8.03
2019-04-25T22:06:50.332Z,8.53
2019-04-25T22:09:21.070Z,8.34
2019-04-25T22:11:50.264Z,8.26
2019-04-25T22:14:19.668Z,8.13
2019-04-25T22:16:48.969Z,8.29
2019-04-25T22:19:18.476Z,8.54
2019-04-25T22:21:47.675Z,8.51
2019-04-25T22:24:17.148Z,8.48
2019-04-25T22:26:48.527Z,8.51
2019-04-25T22:29:17.607Z,8.79
2019-04-25T22:32:03.446Z,8.73
2019-04-25T22:34:51.559Z,8.83
2019-04-25T22:37:11.639Z,8.72
2019-04-25T22:39:40.733Z,8.84
2019-04-25T22:42:10.648Z,8.54
2019-04-25T22:44:40.460Z,8.67
2019-04-25T22:47:10.276Z,8.70
2019-04-25T22:49:39.166Z,8.46
2019-04-25T22:52:09.494Z,8.66
2019-04-25T22:54:40.595Z,8.66
2019-04-25T22:57:10.447Z,8.60
2019-04-25T22:59:39.544Z,8.71
2019-04-25T23:02:11.667Z,8.63
2019-04-25T23:04:42.346Z,8.54
2019-04-25T23:07:12.321Z,8.69
2019-04-25T23:09:41.253Z,8.34
2019-04-25T23:12:10.759Z,8.80
2019-04-25T23:14:39.856Z,8.69
2019-04-25T23:17:09.466Z,8.59
2019-04-25T23:19:38.354Z,8.64
2019-04-25T23:22:07.459Z,8.58
2019-04-25T23:24:37.978Z,8.53
2019-04-25T23:27:12.113Z,8.53
2019-04-25T23:29:40.984Z,8.26
2019-04-25T23:32:10.592Z,8.53
2019-04-25T23:34:39.585Z,8.27
2019-04-25T23:37:08.937Z,8.31
2019-04-25T23:39:38.084Z,8.31
2019-04-25T23:42:07.495Z,8.41
2019-04-25T23:44:36.685Z,8.58
2019-04-25T23:47:06.798Z,7.95
2019-04-25T23:49:36.109Z,7.92
2019-04-25T23:52:07.398Z,7.51
2019-04-25T23:54:36.244Z,7.64
2019-04-25T23:57:05.442Z,7.48
2019-04-25T23:59:35.972Z,7.16
